sensor_id;sensor_type;location;lat;lon;timestamp;P1;durP1;ratioP1;P2;durP2;ratioP2
77099;SDS011;66602;48.922;2.414;2023-11-21T00:01:52;13.30;;;5.90;;
77099;SDS011;66602;48.922;2.414;2023-11-21T00:04:17;10.07;;;5.38;;
77099;SDS011;66602;48.922;2.414;2023-11-21T00:06:42;6.72;;;5.20;;
77099;SDS011;66602;48.922;2.414;2023-11-21T00:09:11;5.45;;;5.05;;
77099;SDS011;66602;48.922;2.414;2023-11-21T00:11:38;9.05;;;5.00;;
77099;SDS011;66602;48.922;2.414;2023-11-21T00:14:03;6.80;;;4.45;;
77099;SDS011;66602;48.922;2.414;2023-11-21T00:16:29;12.20;;;4.72;;
77099;SDS011;66602;48.922;2.414;2023-11-21T00:18:54;10.32;;;4.75;;
77099;SDS011;66602;48.922;2.414;2023-11-21T00:21:20;15.52;;;5.55;;
77099;SDS011;66602;48.922;2.414;2023-11-21T00:23:45;10.45;;;5.05;;
77099;SDS011;66602;48.922;2.414;2023-11-21T00:26:11;10.35;;;5.50;;
77099;SDS011;66602;48.922;2.414;2023-11-21T00:28:36;8.70;;;5.80;;
77099;SDS011;66602;48.922;2.414;2023-11-21T00:31:02;9.20;;;5.57;;
77099;SDS011;66602;48.922;2.414;2023-11-21T00:33:27;9.30;;;6.20;;
77099;SDS011;66602;48.922;2.414;2023-11-21T00:35:53;11.40;;;6.57;;
77099;SDS011;66602;48.922;2.414;2023-11-21T00:38:18;12.35;;;6.70;;
77099;SDS011;66602;48.922;2.414;2023-11-21T00:40:45;10.93;;;5.97;;
77099;SDS011;66602;48.922;2.414;2023-11-21T00:43:11;7.00;;;5.45;;
77099;SDS011;66602;48.922;2.414;2023-11-21T00:45:36;10.60;;;6.18;;
77099;SDS011;66602;48.922;2.414;2023-11-21T00:48:02;6.28;;;5.43;;
77099;SDS011;66602;48.922;2.414;2023-11-21T00:50:30;13.00;;;5.85;;
77099;SDS011;66602;48.922;2.414;2023-11-21T00:52:55;16.20;;;5.70;;
77099;SDS011;66602;48.922;2.414;2023-11-21T00:55:21;7.13;;;6.20;;
77099;SDS011;66602;48.922;2.414;2023-11-21T00:57:47;13.63;;;6.07;;
77099;SDS011;66602;48.922;2.414;2023-11-21T01:00:12;7.20;;;5.85;;
77099;SDS011;66602;48.922;2.414;2023-11-21T01:02:45;7.57;;;6.00;;
77099;SDS011;66602;48.922;2.414;2023-11-21T01:05:12;9.68;;;6.80;;
77099;SDS011;66602;48.922;2.414;2023-11-21T01:07:37;9.35;;;6.95;;
77099;SDS011;66602;48.922;2.414;2023-11-21T01:10:03;10.57;;;6.85;;
77099;SDS011;66602;48.922;2.414;2023-11-21T01:12:32;10.15;;;7.95;;
77099;SDS011;66602;48.922;2.414;2023-11-21T01:14:59;9.73;;;6.50;;
77099;SDS011;66602;48.922;2.414;2023-11-21T01:17:25;7.82;;;7.03;;
77099;SDS011;66602;48.922;2.414;2023-11-21T01:19:52;17.23;;;8.45;;
77099;SDS011;66602;48.922;2.414;2023-11-21T01:22:17;14.38;;;8.45;;
77099;SDS011;66602;48.922;2.414;2023-11-21T01:24:47;18.77;;;8.40;;
77099;SDS011;66602;48.922;2.414;2023-11-21T01:27:12;13.05;;;8.32;;
77099;SDS011;66602;48.922;2.414;2023-11-21T01:29:38;11.32;;;8.35;;
77099;SDS011;66602;48.922;2.414;2023-11-21T01:32:03;8.98;;;7.32;;
77099;SDS011;66602;48.922;2.414;2023-11-21T01:34:29;11.50;;;7.95;;
77099;SDS011;66602;48.922;2.414;2023-11-21T01:36:55;16.25;;;8.80;;
77099;SDS011;66602;48.922;2.414;2023-11-21T01:39:21;9.27;;;8.25;;
77099;SDS011;66602;48.922;2.414;2023-11-21T01:41:49;14.25;;;9.50;;
77099;SDS011;66602;48.922;2.414;2023-11-21T01:44:15;14.27;;;8.77;;
77099;SDS011;66602;48.922;2.414;2023-11-21T01:46:42;14.65;;;8.45;;
77099;SDS011;66602;48.922;2.414;2023-11-21T01:49:07;18.08;;;7.85;;
77099;SDS011;66602;48.922;2.414;2023-11-21T01:51:35;17.25;;;7.65;;
77099;SDS011;66602;48.922;2.414;2023-11-21T01:54:02;15.10;;;7.28;;
77099;SDS011;66602;48.922;2.414;2023-11-21T01:56:30;16.35;;;7.40;;
77099;SDS011;66602;48.922;2.414;2023-11-21T01:58:56;12.90;;;7.55;;
77099;SDS011;66602;48.922;2.414;2023-11-21T02:01:22;12.07;;;7.50;;
77099;SDS011;66602;48.922;2.414;2023-11-21T02:03:47;7.68;;;6.72;;
77099;SDS011;66602;48.922;2.414;2023-11-21T02:06:14;6.88;;;6.15;;
77099;SDS011;66602;48.922;2.414;2023-11-21T02:08:39;10.38;;;6.72;;
77099;SDS011;66602;48.922;2.414;2023-11-21T02:11:07;11.40;;;6.40;;
77099;SDS011;66602;48.922;2.414;2023-11-21T02:13:34;13.38;;;6.05;;
77099;SDS011;66602;48.922;2.414;2023-11-21T02:16:01;14.73;;;6.63;;
77099;SDS011;66602;48.922;2.414;2023-11-21T02:18:27;12.80;;;6.65;;
77099;SDS011;66602;48.922;2.414;2023-11-21T02:20:54;9.88;;;6.55;;
77099;SDS011;66602;48.922;2.414;2023-11-21T02:23:20;10.02;;;6.68;;
77099;SDS011;66602;48.922;2.414;2023-11-21T02:25:48;9.85;;;6.47;;
77099;SDS011;66602;48.922;2.414;2023-11-21T02:28:13;9.38;;;5.63;;
77099;SDS011;66602;48.922;2.414;2023-11-21T02:30:41;8.68;;;5.32;;
77099;SDS011;66602;48.922;2.414;2023-11-21T02:33:07;13.98;;;5.30;;
77099;SDS011;66602;48.922;2.414;2023-11-21T02:35:33;5.28;;;4.80;;
77099;SDS011;66602;48.922;2.414;2023-11-21T02:38:00;5.97;;;5.25;;
77099;SDS011;66602;48.922;2.414;2023-11-21T02:40:25;17.45;;;5.28;;
77099;SDS011;66602;48.922;2.414;2023-11-21T02:42:51;13.05;;;5.45;;
77099;SDS011;66602;48.922;2.414;2023-11-21T02:45:18;7.93;;;4.80;;
77099;SDS011;66602;48.922;2.414;2023-11-21T02:47:45;6.78;;;5.38;;
77099;SDS011;66602;48.922;2.414;2023-11-21T02:50:11;6.15;;;5.40;;
77099;SDS011;66602;48.922;2.414;2023-11-21T02:52:38;9.35;;;5.18;;
77099;SDS011;66602;48.922;2.414;2023-11-21T02:55:05;5.40;;;4.90;;
77099;SDS011;66602;48.922;2.414;2023-11-21T02:57:32;7.68;;;5.03;;
77099;SDS011;66602;48.922;2.414;2023-11-21T02:59:58;9.45;;;5.13;;
77099;SDS011;66602;48.922;2.414;2023-11-21T03:02:24;9.82;;;5.88;;
77099;SDS011;66602;48.922;2.414;2023-11-21T03:04:50;10.45;;;5.70;;
77099;SDS011;66602;48.922;2.414;2023-11-21T03:07:16;7.13;;;4.97;;
77099;SDS011;66602;48.922;2.414;2023-11-21T03:09:44;9.15;;;5.30;;
77099;SDS011;66602;48.922;2.414;2023-11-21T03:12:10;7.35;;;4.70;;
77099;SDS011;66602;48.922;2.414;2023-11-21T03:14:37;6.65;;;4.43;;
77099;SDS011;66602;48.922;2.414;2023-11-21T03:17:04;9.82;;;5.57;;
77099;SDS011;66602;48.922;2.414;2023-11-21T03:19:30;6.07;;;5.05;;
77099;SDS011;66602;48.922;2.414;2023-11-21T03:21:56;5.38;;;4.85;;
77099;SDS011;66602;48.922;2.414;2023-11-21T03:24:21;13.07;;;5.28;;
77099;SDS011;66602;48.922;2.414;2023-11-21T03:26:47;7.10;;;4.93;;
77099;SDS011;66602;48.922;2.414;2023-11-21T03:29:13;6.43;;;4.82;;
77099;SDS011;66602;48.922;2.414;2023-11-21T03:31:40;14.52;;;5.35;;
77099;SDS011;66602;48.922;2.414;2023-11-21T03:34:06;6.20;;;5.53;;
77099;SDS011;66602;48.922;2.414;2023-11-21T03:36:31;15.40;;;5.32;;
77099;SDS011;66602;48.922;2.414;2023-11-21T03:38:57;5.75;;;5.10;;
77099;SDS011;66602;48.922;2.414;2023-11-21T03:41:22;7.93;;;5.65;;
77099;SDS011;66602;48.922;2.414;2023-11-21T03:43:48;7.75;;;5.28;;
77099;SDS011;66602;48.922;2.414;2023-11-21T03:46:13;8.48;;;5.18;;
77099;SDS011;66602;48.922;2.414;2023-11-21T03:48:39;5.88;;;4.82;;
77099;SDS011;66602;48.922;2.414;2023-11-21T03:51:05;6.22;;;4.93;;
77099;SDS011;66602;48.922;2.414;2023-11-21T03:53:31;6.05;;;4.93;;
77099;SDS011;66602;48.922;2.414;2023-11-21T03:55:57;5.75;;;5.30;;
77099;SDS011;66602;48.922;2.414;2023-11-21T03:58:22;8.27;;;5.28;;
77099;SDS011;66602;48.922;2.414;2023-11-21T04:00:48;11.77;;;4.95;;
77099;SDS011;66602;48.922;2.414;2023-11-21T04:03:16;7.38;;;5.07;;
77099;SDS011;66602;48.922;2.414;2023-11-21T04:05:41;5.93;;;4.57;;
77099;SDS011;66602;48.922;2.414;2023-11-21T04:08:07;11.68;;;5.28;;
77099;SDS011;66602;48.922;2.414;2023-11-21T04:10:32;8.30;;;4.82;;
77099;SDS011;66602;48.922;2.414;2023-11-21T04:12:58;6.07;;;3.97;;
77099;SDS011;66602;48.922;2.414;2023-11-21T04:15:24;5.53;;;4.47;;
77099;SDS011;66602;48.922;2.414;2023-11-21T04:17:50;4.43;;;4.10;;
77099;SDS011;66602;48.922;2.414;2023-11-21T04:20:15;5.18;;;4.38;;
77099;SDS011;66602;48.922;2.414;2023-11-21T04:22:41;10.20;;;5.15;;
77099;SDS011;66602;48.922;2.414;2023-11-21T04:25:09;4.57;;;4.18;;
77099;SDS011;66602;48.922;2.414;2023-11-21T04:27:42;7.93;;;5.22;;
77099;SDS011;66602;48.922;2.414;2023-11-21T04:30:09;8.35;;;4.80;;
77099;SDS011;66602;48.922;2.414;2023-11-21T04:32:38;6.03;;;4.30;;
77099;SDS011;66602;48.922;2.414;2023-11-21T04:35:07;6.22;;;4.65;;
77099;SDS011;66602;48.922;2.414;2023-11-21T04:37:33;5.03;;;4.38;;
77099;SDS011;66602;48.922;2.414;2023-11-21T04:39:59;10.98;;;4.82;;
77099;SDS011;66602;48.922;2.414;2023-11-21T04:42:25;4.40;;;4.05;;
77099;SDS011;66602;48.922;2.414;2023-11-21T04:44:50;5.22;;;4.82;;
77099;SDS011;66602;48.922;2.414;2023-11-21T04:47:17;11.45;;;4.32;;
77099;SDS011;66602;48.922;2.414;2023-11-21T04:49:45;6.90;;;4.38;;
77099;SDS011;66602;48.922;2.414;2023-11-21T04:52:12;5.05;;;4.57;;
77099;SDS011;66602;48.922;2.414;2023-11-21T04:54:37;5.88;;;4.20;;
77099;SDS011;66602;48.922;2.414;2023-11-21T04:57:04;4.15;;;3.85;;
77099;SDS011;66602;48.922;2.414;2023-11-21T04:59:32;6.47;;;4.82;;
77099;SDS011;66602;48.922;2.414;2023-11-21T05:01:58;8.90;;;5.45;;
77099;SDS011;66602;48.922;2.414;2023-11-21T05:04:25;6.22;;;4.45;;
77099;SDS011;66602;48.922;2.414;2023-11-21T05:06:50;5.43;;;4.97;;
77099;SDS011;66602;48.922;2.414;2023-11-21T05:09:16;6.97;;;4.70;;
77099;SDS011;66602;48.922;2.414;2023-11-21T05:11:42;6.40;;;5.57;;
77099;SDS011;66602;48.922;2.414;2023-11-21T05:14:08;5.72;;;5.32;;
77099;SDS011;66602;48.922;2.414;2023-11-21T05:16:34;6.15;;;5.50;;
77099;SDS011;66602;48.922;2.414;2023-11-21T05:19:00;6.07;;;5.50;;
77099;SDS011;66602;48.922;2.414;2023-11-21T05:21:29;10.20;;;6.47;;
77099;SDS011;66602;48.922;2.414;2023-11-21T05:23:56;7.00;;;5.32;;
77099;SDS011;66602;48.922;2.414;2023-11-21T05:26:22;8.80;;;6.40;;
77099;SDS011;66602;48.922;2.414;2023-11-21T05:28:47;6.55;;;5.95;;
77099;SDS011;66602;48.922;2.414;2023-11-21T05:31:13;6.63;;;6.13;;
77099;SDS011;66602;48.922;2.414;2023-11-21T05:33:38;6.57;;;6.07;;
77099;SDS011;66602;48.922;2.414;2023-11-21T05:36:04;9.02;;;6.25;;
77099;SDS011;66602;48.922;2.414;2023-11-21T05:38:29;7.97;;;6.60;;
77099;SDS011;66602;48.922;2.414;2023-11-21T05:40:55;6.72;;;6.20;;
77099;SDS011;66602;48.922;2.414;2023-11-21T05:43:20;6.13;;;5.45;;
77099;SDS011;66602;48.922;2.414;2023-11-21T05:45:46;11.93;;;6.93;;
77099;SDS011;66602;48.922;2.414;2023-11-21T05:48:11;7.28;;;6.20;;
77099;SDS011;66602;48.922;2.414;2023-11-21T05:50:37;7.65;;;7.10;;
77099;SDS011;66602;48.922;2.414;2023-11-21T05:53:03;11.93;;;7.90;;
77099;SDS011;66602;48.922;2.414;2023-11-21T05:55:31;8.27;;;7.10;;
77099;SDS011;66602;48.922;2.414;2023-11-21T05:57:58;7.30;;;6.78;;
77099;SDS011;66602;48.922;2.414;2023-11-21T06:00:23;10.13;;;7.72;;
77099;SDS011;66602;48.922;2.414;2023-11-21T06:02:51;9.30;;;7.55;;
77099;SDS011;66602;48.922;2.414;2023-11-21T06:05:21;11.57;;;7.22;;
77099;SDS011;66602;48.922;2.414;2023-11-21T06:07:51;8.20;;;7.60;;
77099;SDS011;66602;48.922;2.414;2023-11-21T06:10:21;8.02;;;7.43;;
77099;SDS011;66602;48.922;2.414;2023-11-21T06:12:48;7.47;;;6.85;;
77099;SDS011;66602;48.922;2.414;2023-11-21T06:15:14;13.80;;;7.57;;
77099;SDS011;66602;48.922;2.414;2023-11-21T06:17:40;8.63;;;7.70;;
77099;SDS011;66602;48.922;2.414;2023-11-21T06:20:07;7.55;;;6.80;;
77099;SDS011;66602;48.922;2.414;2023-11-21T06:22:43;7.60;;;7.10;;
77099;SDS011;66602;48.922;2.414;2023-11-21T06:25:11;8.40;;;7.80;;
77099;SDS011;66602;48.922;2.414;2023-11-21T06:27:47;9.18;;;8.02;;
77099;SDS011;66602;48.922;2.414;2023-11-21T06:30:13;8.07;;;7.47;;
77099;SDS011;66602;48.922;2.414;2023-11-21T06:32:45;7.95;;;7.18;;
77099;SDS011;66602;48.922;2.414;2023-11-21T06:35:13;7.13;;;6.63;;
77099;SDS011;66602;48.922;2.414;2023-11-21T06:37:40;8.32;;;7.53;;
77099;SDS011;66602;48.922;2.414;2023-11-21T06:40:06;8.00;;;7.30;;
77099;SDS011;66602;48.922;2.414;2023-11-21T06:42:32;7.05;;;6.38;;
77099;SDS011;66602;48.922;2.414;2023-11-21T06:44:58;7.40;;;6.90;;
77099;SDS011;66602;48.922;2.414;2023-11-21T06:47:24;7.57;;;6.90;;
77099;SDS011;66602;48.922;2.414;2023-11-21T06:49:51;8.23;;;7.72;;
77099;SDS011;66602;48.922;2.414;2023-11-21T06:52:17;10.75;;;7.30;;
77099;SDS011;66602;48.922;2.414;2023-11-21T06:54:43;8.55;;;7.20;;
77099;SDS011;66602;48.922;2.414;2023-11-21T06:57:09;8.27;;;7.57;;
77099;SDS011;66602;48.922;2.414;2023-11-21T06:59:34;8.18;;;7.38;;
77099;SDS011;66602;48.922;2.414;2023-11-21T07:02:00;7.50;;;6.90;;
77099;SDS011;66602;48.922;2.414;2023-11-21T07:04:25;8.77;;;6.72;;
77099;SDS011;66602;48.922;2.414;2023-11-21T07:06:51;8.13;;;7.35;;
77099;SDS011;66602;48.922;2.414;2023-11-21T07:09:18;7.57;;;6.95;;
77099;SDS011;66602;48.922;2.414;2023-11-21T07:11:47;11.02;;;6.75;;
77099;SDS011;66602;48.922;2.414;2023-11-21T07:14:13;7.50;;;6.88;;
77099;SDS011;66602;48.922;2.414;2023-11-21T07:16:39;6.70;;;6.20;;
77099;SDS011;66602;48.922;2.414;2023-11-21T07:19:05;8.20;;;7.03;;
77099;SDS011;66602;48.922;2.414;2023-11-21T07:21:34;9.15;;;7.13;;
77099;SDS011;66602;48.922;2.414;2023-11-21T07:24:00;8.80;;;7.95;;
77099;SDS011;66602;48.922;2.414;2023-11-21T07:26:27;10.73;;;7.85;;
77099;SDS011;66602;48.922;2.414;2023-11-21T07:28:52;9.23;;;8.32;;
77099;SDS011;66602;48.922;2.414;2023-11-21T07:31:18;10.35;;;8.13;;
77099;SDS011;66602;48.922;2.414;2023-11-21T07:33:45;10.15;;;9.18;;
77099;SDS011;66602;48.922;2.414;2023-11-21T07:36:14;9.75;;;8.73;;
77099;SDS011;66602;48.922;2.414;2023-11-21T07:38:41;8.82;;;7.75;;
77099;SDS011;66602;48.922;2.414;2023-11-21T07:41:07;10.48;;;9.07;;
77099;SDS011;66602;48.922;2.414;2023-11-21T07:43:34;9.43;;;8.50;;
77099;SDS011;66602;48.922;2.414;2023-11-21T07:46:00;11.07;;;9.00;;
77099;SDS011;66602;48.922;2.414;2023-11-21T07:48:28;11.73;;;8.93;;
77099;SDS011;66602;48.922;2.414;2023-11-21T07:50:58;9.40;;;8.38;;
77099;SDS011;66602;48.922;2.414;2023-11-21T07:53:24;10.38;;;9.25;;
77099;SDS011;66602;48.922;2.414;2023-11-21T07:55:50;20.05;;;10.25;;
77099;SDS011;66602;48.922;2.414;2023-11-21T07:58:17;10.63;;;8.75;;
77099;SDS011;66602;48.922;2.414;2023-11-21T08:00:43;10.88;;;8.60;;
77099;SDS011;66602;48.922;2.414;2023-11-21T08:03:09;11.43;;;9.15;;
77099;SDS011;66602;48.922;2.414;2023-11-21T08:05:34;11.13;;;9.80;;
77099;SDS011;66602;48.922;2.414;2023-11-21T08:07:59;10.93;;;9.82;;
77099;SDS011;66602;48.922;2.414;2023-11-21T08:10:25;12.57;;;9.07;;
77099;SDS011;66602;48.922;2.414;2023-11-21T08:12:51;21.20;;;10.80;;
77099;SDS011;66602;48.922;2.414;2023-11-21T08:15:17;13.13;;;10.10;;
77099;SDS011;66602;48.922;2.414;2023-11-21T08:17:43;13.82;;;10.48;;
77099;SDS011;66602;48.922;2.414;2023-11-21T08:20:08;11.77;;;10.05;;
77099;SDS011;66602;48.922;2.414;2023-11-21T08:22:35;11.35;;;9.40;;
77099;SDS011;66602;48.922;2.414;2023-11-21T08:25:01;10.10;;;9.13;;
77099;SDS011;66602;48.922;2.414;2023-11-21T08:27:29;12.63;;;9.85;;
77099;SDS011;66602;48.922;2.414;2023-11-21T08:29:54;12.15;;;11.07;;
77099;SDS011;66602;48.922;2.414;2023-11-21T08:32:21;11.23;;;10.15;;
77099;SDS011;66602;48.922;2.414;2023-11-21T08:34:47;11.15;;;9.45;;
77099;SDS011;66602;48.922;2.414;2023-11-21T08:37:16;10.73;;;9.77;;
77099;SDS011;66602;48.922;2.414;2023-11-21T08:39:42;11.70;;;9.50;;
77099;SDS011;66602;48.922;2.414;2023-11-21T08:42:09;15.00;;;9.00;;
77099;SDS011;66602;48.922;2.414;2023-11-21T08:44:34;11.30;;;9.15;;
77099;SDS011;66602;48.922;2.414;2023-11-21T08:47:00;9.48;;;8.07;;
77099;SDS011;66602;48.922;2.414;2023-11-21T08:49:25;10.82;;;9.65;;
77099;SDS011;66602;48.922;2.414;2023-11-21T08:51:52;12.07;;;8.77;;
77099;SDS011;66602;48.922;2.414;2023-11-21T08:54:20;9.23;;;8.32;;
77099;SDS011;66602;48.922;2.414;2023-11-21T08:56:46;10.75;;;9.48;;
77099;SDS011;66602;48.922;2.414;2023-11-21T08:59:11;9.77;;;8.20;;
77099;SDS011;66602;48.922;2.414;2023-11-21T09:01:39;19.38;;;10.05;;
77099;SDS011;66602;48.922;2.414;2023-11-21T09:04:05;10.50;;;9.20;;
77099;SDS011;66602;48.922;2.414;2023-11-21T09:06:30;9.15;;;8.35;;
77099;SDS011;66602;48.922;2.414;2023-11-21T09:08:56;10.02;;;9.00;;
77099;SDS011;66602;48.922;2.414;2023-11-21T09:11:21;8.57;;;7.90;;
77099;SDS011;66602;48.922;2.414;2023-11-21T09:13:47;8.25;;;7.45;;
77099;SDS011;66602;48.922;2.414;2023-11-21T09:16:13;9.10;;;7.35;;
77099;SDS011;66602;48.922;2.414;2023-11-21T09:18:40;9.13;;;8.30;;
77099;SDS011;66602;48.922;2.414;2023-11-21T09:21:06;8.25;;;7.15;;
77099;SDS011;66602;48.922;2.414;2023-11-21T09:23:31;8.30;;;7.15;;
77099;SDS011;66602;48.922;2.414;2023-11-21T09:25:57;7.55;;;7.00;;
77099;SDS011;66602;48.922;2.414;2023-11-21T09:28:24;8.07;;;7.10;;
77099;SDS011;66602;48.922;2.414;2023-11-21T09:30:52;11.98;;;7.60;;
77099;SDS011;66602;48.922;2.414;2023-11-21T09:33:18;13.95;;;6.57;;
77099;SDS011;66602;48.922;2.414;2023-11-21T09:35:44;8.25;;;6.68;;
77099;SDS011;66602;48.922;2.414;2023-11-21T09:38:10;8.13;;;7.40;;
77099;SDS011;66602;48.922;2.414;2023-11-21T09:40:36;14.75;;;8.55;;
77099;SDS011;66602;48.922;2.414;2023-11-21T09:43:06;10.18;;;6.72;;
77099;SDS011;66602;48.922;2.414;2023-11-21T09:45:39;8.82;;;5.30;;
77099;SDS011;66602;48.922;2.414;2023-11-21T09:48:05;14.27;;;6.95;;
77099;SDS011;66602;48.922;2.414;2023-11-21T09:50:31;6.07;;;5.68;;
77099;SDS011;66602;48.922;2.414;2023-11-21T09:55:43;13.27;;;7.03;;
77099;SDS011;66602;48.922;2.414;2023-11-21T09:58:09;9.10;;;5.50;;
77099;SDS011;66602;48.922;2.414;2023-11-21T10:00:42;21.85;;;10.55;;
77099;SDS011;66602;48.922;2.414;2023-11-21T10:03:11;9.73;;;7.82;;
77099;SDS011;66602;48.922;2.414;2023-11-21T10:05:38;6.05;;;5.43;;
77099;SDS011;66602;48.922;2.414;2023-11-21T10:08:04;7.05;;;5.45;;
77099;SDS011;66602;48.922;2.414;2023-11-21T10:10:33;5.78;;;5.22;;
77099;SDS011;66602;48.922;2.414;2023-11-21T10:13:01;5.05;;;4.63;;
77099;SDS011;66602;48.922;2.414;2023-11-21T10:15:31;4.68;;;4.28;;
77099;SDS011;66602;48.922;2.414;2023-11-21T10:18:01;4.80;;;4.40;;
77099;SDS011;66602;48.922;2.414;2023-11-21T10:20:28;5.38;;;4.97;;
77099;SDS011;66602;48.922;2.414;2023-11-21T10:22:54;6.10;;;5.63;;
77099;SDS011;66602;48.922;2.414;2023-11-21T10:25:21;6.00;;;5.30;;
77099;SDS011;66602;48.922;2.414;2023-11-21T10:27:47;7.60;;;4.40;;
77099;SDS011;66602;48.922;2.414;2023-11-21T10:30:16;5.75;;;3.80;;
77099;SDS011;66602;48.922;2.414;2023-11-21T10:32:41;4.25;;;3.95;;
77099;SDS011;66602;48.922;2.414;2023-11-21T10:35:08;4.30;;;3.90;;
77099;SDS011;66602;48.922;2.414;2023-11-21T10:37:37;5.10;;;4.43;;
77099;SDS011;66602;48.922;2.414;2023-11-21T10:40:06;4.80;;;4.07;;
77099;SDS011;66602;48.922;2.414;2023-11-21T10:42:33;9.45;;;4.00;;
77099;SDS011;66602;48.922;2.414;2023-11-21T10:44:58;10.77;;;3.42;;
77099;SDS011;66602;48.922;2.414;2023-11-21T10:47:25;3.88;;;3.50;;
77099;SDS011;66602;48.922;2.414;2023-11-21T10:49:51;6.40;;;3.67;;
77099;SDS011;66602;48.922;2.414;2023-11-21T10:52:19;3.50;;;3.30;;
77099;SDS011;66602;48.922;2.414;2023-11-21T10:54:45;5.07;;;4.65;;
77099;SDS011;66602;48.922;2.414;2023-11-21T10:57:11;3.88;;;3.35;;
77099;SDS011;66602;48.922;2.414;2023-11-21T10:59:42;2.70;;;2.60;;
77099;SDS011;66602;48.922;2.414;2023-11-21T11:02:21;4.40;;;3.38;;
77099;SDS011;66602;48.922;2.414;2023-11-21T11:04:50;3.60;;;3.25;;
77099;SDS011;66602;48.922;2.414;2023-11-21T11:07:18;3.35;;;3.15;;
77099;SDS011;66602;48.922;2.414;2023-11-21T11:09:46;2.85;;;2.70;;
77099;SDS011;66602;48.922;2.414;2023-11-21T11:12:12;3.70;;;2.67;;
77099;SDS011;66602;48.922;2.414;2023-11-21T11:14:40;2.80;;;2.60;;
77099;SDS011;66602;48.922;2.414;2023-11-21T11:17:06;3.53;;;2.22;;
77099;SDS011;66602;48.922;2.414;2023-11-21T11:19:34;2.30;;;2.20;;
77099;SDS011;66602;48.922;2.414;2023-11-21T11:25:01;3.17;;;2.78;;
77099;SDS011;66602;48.922;2.414;2023-11-21T11:33:36;2.70;;;2.50;;
77099;SDS011;66602;48.922;2.414;2023-11-21T11:38:56;2.88;;;2.35;;
77099;SDS011;66602;48.922;2.414;2023-11-21T11:41:25;3.08;;;2.88;;
77099;SDS011;66602;48.922;2.414;2023-11-21T11:43:52;3.85;;;3.55;;
77099;SDS011;66602;48.922;2.414;2023-11-21T11:46:18;3.70;;;3.17;;
77099;SDS011;66602;48.922;2.414;2023-11-21T11:48:46;3.80;;;3.00;;
77099;SDS011;66602;48.922;2.414;2023-11-21T11:51:13;3.28;;;3.08;;
77099;SDS011;66602;48.922;2.414;2023-11-21T11:53:42;2.90;;;2.55;;
77099;SDS011;66602;48.922;2.414;2023-11-21T11:56:21;2.60;;;2.50;;
77099;SDS011;66602;48.922;2.414;2023-11-21T11:58:51;2.17;;;2.05;;
77099;SDS011;66602;48.922;2.414;2023-11-21T12:01:19;2.47;;;2.28;;
77099;SDS011;66602;48.922;2.414;2023-11-21T12:04:00;5.80;;;3.03;;
77099;SDS011;66602;48.922;2.414;2023-11-21T12:06:39;2.83;;;2.63;;
77099;SDS011;66602;48.922;2.414;2023-11-21T12:09:06;3.08;;;2.88;;
77099;SDS011;66602;48.922;2.414;2023-11-21T12:11:32;3.85;;;2.50;;
77099;SDS011;66602;48.922;2.414;2023-11-21T12:13:58;2.50;;;2.40;;
77099;SDS011;66602;48.922;2.414;2023-11-21T12:16:25;3.05;;;2.83;;
77099;SDS011;66602;48.922;2.414;2023-11-21T12:18:52;2.65;;;2.45;;
77099;SDS011;66602;48.922;2.414;2023-11-21T12:21:19;2.80;;;2.55;;
77099;SDS011;66602;48.922;2.414;2023-11-21T12:23:45;2.40;;;2.30;;
77099;SDS011;66602;48.922;2.414;2023-11-21T12:26:12;2.83;;;2.63;;
77099;SDS011;66602;48.922;2.414;2023-11-21T12:28:38;3.25;;;2.70;;
77099;SDS011;66602;48.922;2.414;2023-11-21T12:31:04;2.53;;;2.30;;
77099;SDS011;66602;48.922;2.414;2023-11-21T12:33:32;2.30;;;2.10;;
77099;SDS011;66602;48.922;2.414;2023-11-21T12:35:58;2.47;;;2.38;;
77099;SDS011;66602;48.922;2.414;2023-11-21T12:38:24;2.28;;;2.17;;
77099;SDS011;66602;48.922;2.414;2023-11-21T12:40:50;2.70;;;2.50;;
77099;SDS011;66602;48.922;2.414;2023-11-21T12:43:16;2.95;;;2.75;;
77099;SDS011;66602;48.922;2.414;2023-11-21T12:45:43;2.60;;;2.50;;
77099;SDS011;66602;48.922;2.414;2023-11-21T12:48:09;3.97;;;2.92;;
77099;SDS011;66602;48.922;2.414;2023-11-21T12:50:36;4.90;;;3.47;;
77099;SDS011;66602;48.922;2.414;2023-11-21T12:53:09;3.25;;;2.88;;
77099;SDS011;66602;48.922;2.414;2023-11-21T12:55:41;3.38;;;3.17;;
77099;SDS011;66602;48.922;2.414;2023-11-21T12:58:09;3.30;;;3.10;;
77099;SDS011;66602;48.922;2.414;2023-11-21T13:00:36;3.38;;;3.17;;
77099;SDS011;66602;48.922;2.414;2023-11-21T13:03:08;4.03;;;3.30;;
77099;SDS011;66602;48.922;2.414;2023-11-21T13:05:38;3.28;;;2.60;;
77099;SDS011;66602;48.922;2.414;2023-11-21T13:08:09;2.30;;;2.20;;
77099;SDS011;66602;48.922;2.414;2023-11-21T13:10:38;2.67;;;2.58;;
77099;SDS011;66602;48.922;2.414;2023-11-21T13:13:07;2.50;;;2.35;;
77099;SDS011;66602;48.922;2.414;2023-11-21T13:15:35;3.13;;;2.92;;
77099;SDS011;66602;48.922;2.414;2023-11-21T13:18:06;2.65;;;2.53;;
77099;SDS011;66602;48.922;2.414;2023-11-21T13:20:32;2.53;;;2.35;;
77099;SDS011;66602;48.922;2.414;2023-11-21T13:22:58;2.30;;;2.20;;
77099;SDS011;66602;48.922;2.414;2023-11-21T13:25:25;4.78;;;3.17;;
77099;SDS011;66602;48.922;2.414;2023-11-21T13:27:54;2.70;;;2.60;;
77099;SDS011;66602;48.922;2.414;2023-11-21T13:30:20;4.85;;;2.95;;
77099;SDS011;66602;48.922;2.414;2023-11-21T13:32:58;5.30;;;3.15;;
77099;SDS011;66602;48.922;2.414;2023-11-21T13:35:36;3.70;;;2.60;;
77099;SDS011;66602;48.922;2.414;2023-11-21T13:40:37;2.80;;;2.70;;
77099;SDS011;66602;48.922;2.414;2023-11-21T13:43:15;2.20;;;2.10;;
77099;SDS011;66602;48.922;2.414;2023-11-21T13:45:42;3.55;;;2.22;;
77099;SDS011;66602;48.922;2.414;2023-11-21T13:48:08;1.92;;;1.85;;
77099;SDS011;66602;48.922;2.414;2023-11-21T13:50:46;2.05;;;1.95;;
77099;SDS011;66602;48.922;2.414;2023-11-21T13:53:20;2.25;;;2.10;;
77099;SDS011;66602;48.922;2.414;2023-11-21T13:55:52;2.63;;;2.53;;
77099;SDS011;66602;48.922;2.414;2023-11-21T13:58:25;2.25;;;2.15;;
77099;SDS011;66602;48.922;2.414;2023-11-21T14:01:06;2.28;;;2.17;;
77099;SDS011;66602;48.922;2.414;2023-11-21T14:03:42;1.95;;;1.70;;
77099;SDS011;66602;48.922;2.414;2023-11-21T14:06:09;2.08;;;1.98;;
77099;SDS011;66602;48.922;2.414;2023-11-21T14:08:40;2.45;;;2.00;;
77099;SDS011;66602;48.922;2.414;2023-11-21T14:11:07;3.00;;;2.20;;
77099;SDS011;66602;48.922;2.414;2023-11-21T14:13:32;1.40;;;1.40;;
77099;SDS011;66602;48.922;2.414;2023-11-21T14:15:58;2.15;;;2.00;;
77099;SDS011;66602;48.922;2.414;2023-11-21T14:18:26;2.33;;;2.13;;
77099;SDS011;66602;48.922;2.414;2023-11-21T14:21:03;2.00;;;1.90;;
77099;SDS011;66602;48.922;2.414;2023-11-21T14:23:30;1.65;;;1.65;;
77099;SDS011;66602;48.922;2.414;2023-11-21T14:25:56;2.28;;;2.00;;
77099;SDS011;66602;48.922;2.414;2023-11-21T14:28:23;1.92;;;1.83;;
77099;SDS011;66602;48.922;2.414;2023-11-21T14:30:49;2.20;;;2.00;;
77099;SDS011;66602;48.922;2.414;2023-11-21T14:33:14;1.85;;;1.75;;
77099;SDS011;66602;48.922;2.414;2023-11-21T14:35:41;1.88;;;1.73;;
77099;SDS011;66602;48.922;2.414;2023-11-21T14:38:08;1.52;;;1.40;;
77099;SDS011;66602;48.922;2.414;2023-11-21T14:40:35;3.28;;;1.98;;
77099;SDS011;66602;48.922;2.414;2023-11-21T14:43:01;1.70;;;1.60;;
77099;SDS011;66602;48.922;2.414;2023-11-21T14:45:30;4.03;;;1.73;;
77099;SDS011;66602;48.922;2.414;2023-11-21T14:47:56;2.45;;;1.50;;
77099;SDS011;66602;48.922;2.414;2023-11-21T14:50:31;1.67;;;1.27;;
77099;SDS011;66602;48.922;2.414;2023-11-21T14:53:07;1.70;;;1.35;;
77099;SDS011;66602;48.922;2.414;2023-11-21T14:55:34;1.38;;;1.08;;
77099;SDS011;66602;48.922;2.414;2023-11-21T14:58:05;6.32;;;1.73;;
77099;SDS011;66602;48.922;2.414;2023-11-21T15:00:30;2.85;;;1.45;;